sensor_id;sensor_type;location;lat;lon;timestamp;P1;durP1;ratioP1;P2;durP2;ratioP2
74614;SDS011;63121;51.458;-0.110;2022-09-09T00:09:17;13.73;;;2.63;;
74614;SDS011;63121;51.458;-0.110;2022-09-09T00:11:45;10.18;;;2.30;;
74614;SDS011;63121;51.458;-0.110;2022-09-09T00:17:01;10.98;;;2.22;;
74614;SDS011;63121;51.458;-0.110;2022-09-09T00:19:41;11.73;;;2.50;;
74614;SDS011;63121;51.458;-0.110;2022-09-09T00:22:16;15.55;;;2.70;;
74614;SDS011;63121;51.458;-0.110;2022-09-09T00:24:45;14.60;;;2.58;;
74614;SDS011;63121;51.458;-0.110;2022-09-09T00:29:53;11.32;;;2.38;;
74614;SDS011;63121;51.458;-0.110;2022-09-09T00:32:22;15.63;;;2.72;;
74614;SDS011;63121;51.458;-0.110;2022-09-09T00:34:51;12.07;;;2.30;;
74614;SDS011;63121;51.458;-0.110;2022-09-09T00:37:20;9.57;;;2.42;;
74614;SDS011;63121;51.458;-0.110;2022-09-09T00:39:50;15.55;;;3.20;;
74614;SDS011;63121;51.458;-0.110;2022-09-09T00:42:24;14.63;;;2.60;;
74614;SDS011;63121;51.458;-0.110;2022-09-09T00:45:35;13.60;;;2.80;;
74614;SDS011;63121;51.458;-0.110;2022-09-09T00:48:05;12.15;;;2.42;;
74614;SDS011;63121;51.458;-0.110;2022-09-09T00:56:16;10.70;;;2.15;;
74614;SDS011;63121;51.458;-0.110;2022-09-09T01:01:30;11.60;;;2.53;;
74614;SDS011;63121;51.458;-0.110;2022-09-09T01:03:56;14.10;;;2.50;;
74614;SDS011;63121;51.458;-0.110;2022-09-09T01:06:31;9.60;;;2.53;;
74614;SDS011;63121;51.458;-0.110;2022-09-09T01:11:51;12.20;;;2.83;;
74614;SDS011;63121;51.458;-0.110;2022-09-09T01:17:24;8.80;;;2.42;;
74614;SDS011;63121;51.458;-0.110;2022-09-09T01:22:32;9.25;;;2.35;;
74614;SDS011;63121;51.458;-0.110;2022-09-09T01:28:08;13.05;;;2.40;;
74614;SDS011;63121;51.458;-0.110;2022-09-09T01:30:39;9.73;;;2.50;;
74614;SDS011;63121;51.458;-0.110;2022-09-09T01:33:13;10.13;;;2.65;;
74614;SDS011;63121;51.458;-0.110;2022-09-09T01:36:00;10.93;;;2.38;;
74614;SDS011;63121;51.458;-0.110;2022-09-09T01:38:45;9.98;;;2.20;;
74614;SDS011;63121;51.458;-0.110;2022-09-09T01:41:10;7.53;;;2.00;;
74614;SDS011;63121;51.458;-0.110;2022-09-09T01:43:35;10.18;;;1.85;;
74614;SDS011;63121;51.458;-0.110;2022-09-09T01:46:02;8.77;;;2.00;;
74614;SDS011;63121;51.458;-0.110;2022-09-09T01:48:28;11.07;;;2.08;;
74614;SDS011;63121;51.458;-0.110;2022-09-09T01:50:54;11.75;;;2.38;;
74614;SDS011;63121;51.458;-0.110;2022-09-09T01:53:20;8.23;;;2.13;;
74614;SDS011;63121;51.458;-0.110;2022-09-09T02:03:53;9.68;;;1.83;;
74614;SDS011;63121;51.458;-0.110;2022-09-09T02:06:29;10.10;;;1.77;;
74614;SDS011;63121;51.458;-0.110;2022-09-09T02:08:59;11.57;;;2.25;;
74614;SDS011;63121;51.458;-0.110;2022-09-09T02:11:28;13.55;;;2.22;;
74614;SDS011;63121;51.458;-0.110;2022-09-09T02:14:00;10.00;;;2.08;;
74614;SDS011;63121;51.458;-0.110;2022-09-09T02:16:34;10.55;;;2.35;;
74614;SDS011;63121;51.458;-0.110;2022-09-09T02:19:13;9.52;;;1.98;;
74614;SDS011;63121;51.458;-0.110;2022-09-09T02:21:52;10.82;;;2.60;;
74614;SDS011;63121;51.458;-0.110;2022-09-09T02:24:20;10.63;;;2.30;;
74614;SDS011;63121;51.458;-0.110;2022-09-09T02:26:47;10.30;;;2.35;;
74614;SDS011;63121;51.458;-0.110;2022-09-09T02:29:19;11.50;;;2.40;;
74614;SDS011;63121;51.458;-0.110;2022-09-09T02:34:14;14.57;;;2.53;;
74614;SDS011;63121;51.458;-0.110;2022-09-09T02:36:43;10.32;;;2.30;;
74614;SDS011;63121;51.458;-0.110;2022-09-09T02:39:10;12.38;;;2.42;;
74614;SDS011;63121;51.458;-0.110;2022-09-09T02:41:37;12.25;;;2.70;;
74614;SDS011;63121;51.458;-0.110;2022-09-09T02:44:12;12.70;;;2.20;;
74614;SDS011;63121;51.458;-0.110;2022-09-09T02:52:20;13.05;;;2.13;;
74614;SDS011;63121;51.458;-0.110;2022-09-09T02:58:07;14.25;;;2.97;;
74614;SDS011;63121;51.458;-0.110;2022-09-09T03:00:36;13.93;;;2.53;;
74614;SDS011;63121;51.458;-0.110;2022-09-09T03:03:03;12.25;;;2.47;;
74614;SDS011;63121;51.458;-0.110;2022-09-09T03:05:29;14.05;;;2.22;;
74614;SDS011;63121;51.458;-0.110;2022-09-09T03:07:54;10.00;;;2.37;;
74614;SDS011;63121;51.458;-0.110;2022-09-09T03:10:20;13.38;;;2.40;;
74614;SDS011;63121;51.458;-0.110;2022-09-09T03:12:45;11.15;;;2.28;;
74614;SDS011;63121;51.458;-0.110;2022-09-09T03:15:10;8.48;;;2.35;;
74614;SDS011;63121;51.458;-0.110;2022-09-09T03:17:36;11.30;;;2.17;;
74614;SDS011;63121;51.458;-0.110;2022-09-09T03:20:03;14.80;;;2.90;;
74614;SDS011;63121;51.458;-0.110;2022-09-09T03:22:29;13.13;;;2.90;;
74614;SDS011;63121;51.458;-0.110;2022-09-09T03:24:54;12.40;;;2.55;;
74614;SDS011;63121;51.458;-0.110;2022-09-09T03:27:19;11.90;;;2.30;;
74614;SDS011;63121;51.458;-0.110;2022-09-09T03:29:45;9.73;;;2.75;;
74614;SDS011;63121;51.458;-0.110;2022-09-09T03:32:11;11.27;;;2.47;;
74614;SDS011;63121;51.458;-0.110;2022-09-09T03:34:37;9.70;;;2.20;;
74614;SDS011;63121;51.458;-0.110;2022-09-09T03:37:05;11.13;;;2.03;;
74614;SDS011;63121;51.458;-0.110;2022-09-09T03:39:31;14.07;;;3.03;;
74614;SDS011;63121;51.458;-0.110;2022-09-09T03:41:56;11.90;;;2.72;;
74614;SDS011;63121;51.458;-0.110;2022-09-09T03:44:22;11.20;;;2.70;;
74614;SDS011;63121;51.458;-0.110;2022-09-09T03:46:47;9.52;;;2.65;;
74614;SDS011;63121;51.458;-0.110;2022-09-09T03:49:12;14.25;;;2.40;;
74614;SDS011;63121;51.458;-0.110;2022-09-09T03:51:38;12.30;;;3.20;;
74614;SDS011;63121;51.458;-0.110;2022-09-09T03:54:04;8.23;;;2.90;;
74614;SDS011;63121;51.458;-0.110;2022-09-09T03:56:33;8.80;;;2.60;;
74614;SDS011;63121;51.458;-0.110;2022-09-09T03:58:59;11.32;;;2.83;;
74614;SDS011;63121;51.458;-0.110;2022-09-09T04:01:24;9.33;;;2.60;;
74614;SDS011;63121;51.458;-0.110;2022-09-09T04:03:49;9.63;;;2.20;;
74614;SDS011;63121;51.458;-0.110;2022-09-09T04:06:15;11.02;;;2.67;;
74614;SDS011;63121;51.458;-0.110;2022-09-09T04:08:46;10.00;;;2.50;;
74614;SDS011;63121;51.458;-0.110;2022-09-09T04:11:13;15.32;;;2.53;;
74614;SDS011;63121;51.458;-0.110;2022-09-09T04:13:40;6.63;;;2.20;;
74614;SDS011;63121;51.458;-0.110;2022-09-09T04:16:06;7.18;;;2.40;;
74614;SDS011;63121;51.458;-0.110;2022-09-09T04:18:34;11.38;;;2.80;;
74614;SDS011;63121;51.458;-0.110;2022-09-09T04:21:00;8.55;;;2.38;;
74614;SDS011;63121;51.458;-0.110;2022-09-09T04:23:26;13.63;;;2.28;;
74614;SDS011;63121;51.458;-0.110;2022-09-09T04:25:54;9.43;;;2.58;;
74614;SDS011;63121;51.458;-0.110;2022-09-09T04:28:21;9.18;;;2.47;;
74614;SDS011;63121;51.458;-0.110;2022-09-09T04:30:49;11.77;;;2.50;;
74614;SDS011;63121;51.458;-0.110;2022-09-09T04:33:15;8.13;;;2.47;;
74614;SDS011;63121;51.458;-0.110;2022-09-09T04:35:45;9.95;;;2.67;;
74614;SDS011;63121;51.458;-0.110;2022-09-09T04:38:12;9.63;;;2.55;;
74614;SDS011;63121;51.458;-0.110;2022-09-09T04:40:38;13.43;;;3.33;;
74614;SDS011;63121;51.458;-0.110;2022-09-09T04:43:07;8.98;;;2.20;;
74614;SDS011;63121;51.458;-0.110;2022-09-09T04:45:34;8.15;;;2.40;;
74614;SDS011;63121;51.458;-0.110;2022-09-09T04:47:59;9.25;;;2.40;;
74614;SDS011;63121;51.458;-0.110;2022-09-09T04:50:25;6.80;;;2.15;;
74614;SDS011;63121;51.458;-0.110;2022-09-09T04:52:50;8.32;;;2.50;;
74614;SDS011;63121;51.458;-0.110;2022-09-09T04:55:16;8.18;;;2.22;;
74614;SDS011;63121;51.458;-0.110;2022-09-09T04:57:41;6.80;;;2.33;;
74614;SDS011;63121;51.458;-0.110;2022-09-09T05:00:07;9.40;;;2.45;;
74614;SDS011;63121;51.458;-0.110;2022-09-09T05:02:36;10.48;;;2.63;;
74614;SDS011;63121;51.458;-0.110;2022-09-09T05:05:02;9.25;;;2.55;;
74614;SDS011;63121;51.458;-0.110;2022-09-09T05:07:28;9.95;;;2.70;;
74614;SDS011;63121;51.458;-0.110;2022-09-09T05:09:54;10.20;;;2.63;;
74614;SDS011;63121;51.458;-0.110;2022-09-09T05:12:19;9.80;;;2.72;;
74614;SDS011;63121;51.458;-0.110;2022-09-09T05:14:44;10.93;;;2.83;;
74614;SDS011;63121;51.458;-0.110;2022-09-09T05:17:10;11.00;;;3.50;;
74614;SDS011;63121;51.458;-0.110;2022-09-09T05:19:35;10.73;;;2.90;;
74614;SDS011;63121;51.458;-0.110;2022-09-09T05:22:01;11.27;;;2.83;;
74614;SDS011;63121;51.458;-0.110;2022-09-09T05:24:26;14.18;;;3.75;;
74614;SDS011;63121;51.458;-0.110;2022-09-09T05:26:52;11.85;;;3.05;;
74614;SDS011;63121;51.458;-0.110;2022-09-09T05:29:17;13.50;;;3.50;;
74614;SDS011;63121;51.458;-0.110;2022-09-09T05:31:44;11.10;;;3.38;;
74614;SDS011;63121;51.458;-0.110;2022-09-09T05:34:10;11.52;;;2.83;;
74614;SDS011;63121;51.458;-0.110;2022-09-09T05:36:36;9.82;;;3.28;;
74614;SDS011;63121;51.458;-0.110;2022-09-09T05:39:02;10.43;;;3.13;;
74614;SDS011;63121;51.458;-0.110;2022-09-09T05:41:27;19.48;;;3.88;;
74614;SDS011;63121;51.458;-0.110;2022-09-09T05:43:54;15.45;;;4.10;;
74614;SDS011;63121;51.458;-0.110;2022-09-09T05:46:20;8.77;;;3.08;;
74614;SDS011;63121;51.458;-0.110;2022-09-09T05:48:48;11.57;;;3.88;;
74614;SDS011;63121;51.458;-0.110;2022-09-09T05:51:18;10.23;;;3.13;;
74614;SDS011;63121;51.458;-0.110;2022-09-09T05:53:46;15.38;;;3.67;;
74614;SDS011;63121;51.458;-0.110;2022-09-09T05:56:17;13.85;;;3.75;;
74614;SDS011;63121;51.458;-0.110;2022-09-09T05:58:44;12.65;;;4.15;;
74614;SDS011;63121;51.458;-0.110;2022-09-09T06:01:21;13.52;;;3.35;;
74614;SDS011;63121;51.458;-0.110;2022-09-09T06:03:53;12.73;;;3.70;;
74614;SDS011;63121;51.458;-0.110;2022-09-09T06:06:20;11.88;;;3.85;;
74614;SDS011;63121;51.458;-0.110;2022-09-09T06:08:47;10.55;;;3.80;;
74614;SDS011;63121;51.458;-0.110;2022-09-09T06:11:16;12.95;;;4.30;;
74614;SDS011;63121;51.458;-0.110;2022-09-09T06:13:43;14.55;;;4.22;;
74614;SDS011;63121;51.458;-0.110;2022-09-09T06:16:09;15.25;;;4.00;;
74614;SDS011;63121;51.458;-0.110;2022-09-09T06:18:40;13.07;;;4.13;;
74614;SDS011;63121;51.458;-0.110;2022-09-09T06:21:09;11.55;;;3.58;;
74614;SDS011;63121;51.458;-0.110;2022-09-09T06:23:41;12.70;;;4.05;;
74614;SDS011;63121;51.458;-0.110;2022-09-09T06:26:13;13.35;;;3.75;;
74614;SDS011;63121;51.458;-0.110;2022-09-09T06:31:08;10.02;;;4.03;;
74614;SDS011;63121;51.458;-0.110;2022-09-09T06:33:35;10.38;;;3.60;;
74614;SDS011;63121;51.458;-0.110;2022-09-09T06:36:04;12.18;;;3.38;;
74614;SDS011;63121;51.458;-0.110;2022-09-09T06:38:30;13.98;;;4.20;;
74614;SDS011;63121;51.458;-0.110;2022-09-09T06:40:56;12.95;;;4.10;;
74614;SDS011;63121;51.458;-0.110;2022-09-09T06:43:23;16.85;;;3.55;;
74614;SDS011;63121;51.458;-0.110;2022-09-09T06:46:02;11.27;;;3.60;;
74614;SDS011;63121;51.458;-0.110;2022-09-09T06:48:29;13.23;;;3.67;;
74614;SDS011;63121;51.458;-0.110;2022-09-09T06:53:29;13.50;;;3.53;;
74614;SDS011;63121;51.458;-0.110;2022-09-09T06:55:58;11.98;;;3.40;;
74614;SDS011;63121;51.458;-0.110;2022-09-09T06:58:26;9.95;;;3.45;;
74614;SDS011;63121;51.458;-0.110;2022-09-09T07:00:51;10.13;;;3.35;;
74614;SDS011;63121;51.458;-0.110;2022-09-09T07:03:17;15.85;;;4.03;;
74614;SDS011;63121;51.458;-0.110;2022-09-09T07:05:43;11.13;;;3.30;;
74614;SDS011;63121;51.458;-0.110;2022-09-09T07:08:09;10.98;;;3.10;;
74614;SDS011;63121;51.458;-0.110;2022-09-09T07:10:35;11.93;;;3.03;;
74614;SDS011;63121;51.458;-0.110;2022-09-09T07:13:01;8.98;;;3.17;;
74614;SDS011;63121;51.458;-0.110;2022-09-09T07:15:27;10.25;;;3.42;;
74614;SDS011;63121;51.458;-0.110;2022-09-09T07:17:52;8.70;;;3.10;;
74614;SDS011;63121;51.458;-0.110;2022-09-09T07:20:18;8.15;;;2.40;;
74614;SDS011;63121;51.458;-0.110;2022-09-09T07:22:45;9.57;;;2.65;;
74614;SDS011;63121;51.458;-0.110;2022-09-09T07:25:10;10.35;;;3.10;;
74614;SDS011;63121;51.458;-0.110;2022-09-09T07:27:36;8.25;;;2.80;;
74614;SDS011;63121;51.458;-0.110;2022-09-09T07:30:02;11.20;;;3.05;;
74614;SDS011;63121;51.458;-0.110;2022-09-09T07:32:28;9.70;;;2.80;;
74614;SDS011;63121;51.458;-0.110;2022-09-09T07:34:55;8.77;;;2.45;;
74614;SDS011;63121;51.458;-0.110;2022-09-09T07:37:23;8.55;;;2.55;;
74614;SDS011;63121;51.458;-0.110;2022-09-09T07:39:49;7.55;;;2.53;;
74614;SDS011;63121;51.458;-0.110;2022-09-09T07:44:41;14.50;;;3.27;;
74614;SDS011;63121;51.458;-0.110;2022-09-09T07:47:06;7.20;;;2.42;;
74614;SDS011;63121;51.458;-0.110;2022-09-09T07:49:32;8.65;;;2.83;;
74614;SDS011;63121;51.458;-0.110;2022-09-09T07:51:57;9.25;;;2.63;;
74614;SDS011;63121;51.458;-0.110;2022-09-09T07:54:23;9.32;;;2.72;;
74614;SDS011;63121;51.458;-0.110;2022-09-09T07:56:48;8.80;;;2.60;;
74614;SDS011;63121;51.458;-0.110;2022-09-09T07:59:15;7.07;;;2.20;;
74614;SDS011;63121;51.458;-0.110;2022-09-09T08:01:44;6.78;;;2.28;;
74614;SDS011;63121;51.458;-0.110;2022-09-09T08:04:16;10.85;;;2.55;;
74614;SDS011;63121;51.458;-0.110;2022-09-09T08:06:44;6.72;;;2.33;;
74614;SDS011;63121;51.458;-0.110;2022-09-09T08:09:12;5.93;;;2.20;;
74614;SDS011;63121;51.458;-0.110;2022-09-09T08:11:38;7.05;;;2.47;;
74614;SDS011;63121;51.458;-0.110;2022-09-09T08:14:06;9.65;;;2.45;;
74614;SDS011;63121;51.458;-0.110;2022-09-09T08:16:33;6.20;;;1.88;;
74614;SDS011;63121;51.458;-0.110;2022-09-09T08:19:02;6.95;;;2.05;;
74614;SDS011;63121;51.458;-0.110;2022-09-09T08:23:55;7.93;;;2.53;;
74614;SDS011;63121;51.458;-0.110;2022-09-09T08:26:22;8.23;;;2.10;;
74614;SDS011;63121;51.458;-0.110;2022-09-09T08:28:53;10.32;;;2.35;;
74614;SDS011;63121;51.458;-0.110;2022-09-09T08:31:29;8.77;;;2.47;;
74614;SDS011;63121;51.458;-0.110;2022-09-09T08:34:05;8.48;;;2.85;;
74614;SDS011;63121;51.458;-0.110;2022-09-09T08:36:35;8.82;;;3.50;;
74614;SDS011;63121;51.458;-0.110;2022-09-09T08:39:04;8.05;;;2.70;;
74614;SDS011;63121;51.458;-0.110;2022-09-09T08:44:22;8.45;;;2.83;;
74614;SDS011;63121;51.458;-0.110;2022-09-09T08:49:51;11.70;;;3.17;;
74614;SDS011;63121;51.458;-0.110;2022-09-09T08:55:52;10.18;;;3.75;;
74614;SDS011;63121;51.458;-0.110;2022-09-09T08:58:29;8.23;;;2.97;;
74614;SDS011;63121;51.458;-0.110;2022-09-09T09:09:02;12.63;;;3.80;;
74614;SDS011;63121;51.458;-0.110;2022-09-09T09:11:37;12.18;;;4.15;;
74614;SDS011;63121;51.458;-0.110;2022-09-09T09:14:25;12.85;;;5.00;;
74614;SDS011;63121;51.458;-0.110;2022-09-09T09:16:58;13.52;;;5.03;;
74614;SDS011;63121;51.458;-0.110;2022-09-09T09:19:29;13.07;;;4.60;;
74614;SDS011;63121;51.458;-0.110;2022-09-09T09:27:25;10.60;;;4.28;;
74614;SDS011;63121;51.458;-0.110;2022-09-09T09:29:59;14.23;;;4.70;;
74614;SDS011;63121;51.458;-0.110;2022-09-09T09:32:27;12.77;;;4.47;;
74614;SDS011;63121;51.458;-0.110;2022-09-09T09:34:58;12.85;;;4.88;;
74614;SDS011;63121;51.458;-0.110;2022-09-09T09:37:34;11.77;;;4.90;;
74614;SDS011;63121;51.458;-0.110;2022-09-09T09:40:14;13.13;;;4.78;;
74614;SDS011;63121;51.458;-0.110;2022-09-09T09:42:51;14.88;;;5.15;;
74614;SDS011;63121;51.458;-0.110;2022-09-09T09:45:31;12.20;;;4.78;;
74614;SDS011;63121;51.458;-0.110;2022-09-09T09:48:00;12.77;;;4.78;;
74614;SDS011;63121;51.458;-0.110;2022-09-09T09:50:28;14.55;;;5.03;;
74614;SDS011;63121;51.458;-0.110;2022-09-09T09:52:55;12.07;;;5.45;;
74614;SDS011;63121;51.458;-0.110;2022-09-09T09:55:22;13.60;;;5.00;;
74614;SDS011;63121;51.458;-0.110;2022-09-09T09:57:49;13.00;;;5.32;;
74614;SDS011;63121;51.458;-0.110;2022-09-09T10:00:18;11.43;;;5.53;;
74614;SDS011;63121;51.458;-0.110;2022-09-09T10:02:46;12.15;;;5.18;;
74614;SDS011;63121;51.458;-0.110;2022-09-09T10:05:20;15.90;;;5.72;;
74614;SDS011;63121;51.458;-0.110;2022-09-09T10:08:04;14.70;;;5.15;;
74614;SDS011;63121;51.458;-0.110;2022-09-09T10:13:37;13.75;;;5.78;;
74614;SDS011;63121;51.458;-0.110;2022-09-09T10:19:33;13.38;;;5.40;;
74614;SDS011;63121;51.458;-0.110;2022-09-09T10:22:16;13.88;;;5.45;;
74614;SDS011;63121;51.458;-0.110;2022-09-09T10:27:32;14.15;;;5.00;;
74614;SDS011;63121;51.458;-0.110;2022-09-09T10:33:04;11.30;;;4.93;;
74614;SDS011;63121;51.458;-0.110;2022-09-09T10:40:33;11.67;;;4.77;;
74614;SDS011;63121;51.458;-0.110;2022-09-09T10:43:10;12.30;;;5.20;;
74614;SDS011;63121;51.458;-0.110;2022-09-09T10:45:45;17.08;;;6.25;;
74614;SDS011;63121;51.458;-0.110;2022-09-09T10:56:38;15.13;;;4.90;;
74614;SDS011;63121;51.458;-0.110;2022-09-09T10:59:09;13.23;;;5.30;;
74614;SDS011;63121;51.458;-0.110;2022-09-09T11:01:43;14.63;;;5.68;;
74614;SDS011;63121;51.458;-0.110;2022-09-09T11:04:19;12.20;;;5.10;;
74614;SDS011;63121;51.458;-0.110;2022-09-09T11:06:50;11.90;;;5.03;;
74614;SDS011;63121;51.458;-0.110;2022-09-09T11:09:21;12.73;;;4.55;;
74614;SDS011;63121;51.458;-0.110;2022-09-09T11:11:54;10.77;;;4.40;;
74614;SDS011;63121;51.458;-0.110;2022-09-09T11:14:36;8.70;;;3.72;;
74614;SDS011;63121;51.458;-0.110;2022-09-09T11:17:08;8.15;;;2.85;;
74614;SDS011;63121;51.458;-0.110;2022-09-09T11:19:38;8.32;;;3.30;;
74614;SDS011;63121;51.458;-0.110;2022-09-09T11:22:16;10.40;;;3.10;;
74614;SDS011;63121;51.458;-0.110;2022-09-09T11:24:52;8.32;;;3.10;;
74614;SDS011;63121;51.458;-0.110;2022-09-09T11:27:44;9.43;;;3.50;;
74614;SDS011;63121;51.458;-0.110;2022-09-09T11:33:15;8.98;;;3.55;;
74614;SDS011;63121;51.458;-0.110;2022-09-09T11:39:19;9.35;;;3.55;;
74614;SDS011;63121;51.458;-0.110;2022-09-09T11:44:43;7.35;;;2.67;;
74614;SDS011;63121;51.458;-0.110;2022-09-09T11:47:28;8.82;;;3.20;;
74614;SDS011;63121;51.458;-0.110;2022-09-09T11:52:40;7.88;;;3.00;;
74614;SDS011;63121;51.458;-0.110;2022-09-09T11:55:12;6.45;;;2.75;;
74614;SDS011;63121;51.458;-0.110;2022-09-09T11:57:48;8.02;;;2.70;;
74614;SDS011;63121;51.458;-0.110;2022-09-09T12:00:31;8.50;;;2.78;;
74614;SDS011;63121;51.458;-0.110;2022-09-09T12:03:02;8.38;;;2.70;;
74614;SDS011;63121;51.458;-0.110;2022-09-09T12:06:08;7.18;;;2.53;;
74614;SDS011;63121;51.458;-0.110;2022-09-09T12:08:26;8.00;;;2.33;;
74614;SDS011;63121;51.458;-0.110;2022-09-09T12:10:54;7.93;;;2.55;;
74614;SDS011;63121;51.458;-0.110;2022-09-09T12:13:23;9.18;;;2.72;;
74614;SDS011;63121;51.458;-0.110;2022-09-09T12:15:53;8.27;;;2.67;;
74614;SDS011;63121;51.458;-0.110;2022-09-09T12:18:24;6.85;;;2.67;;
74614;SDS011;63121;51.458;-0.110;2022-09-09T12:20:57;8.35;;;3.00;;
74614;SDS011;63121;51.458;-0.110;2022-09-09T12:23:42;7.25;;;2.70;;
74614;SDS011;63121;51.458;-0.110;2022-09-09T12:34:11;6.30;;;2.15;;
74614;SDS011;63121;51.458;-0.110;2022-09-09T12:36:58;8.18;;;2.15;;
74614;SDS011;63121;51.458;-0.110;2022-09-09T12:39:30;7.68;;;2.13;;
74614;SDS011;63121;51.458;-0.110;2022-09-09T12:41:59;8.20;;;1.73;;
74614;SDS011;63121;51.458;-0.110;2022-09-09T12:44:25;6.63;;;1.95;;
74614;SDS011;63121;51.458;-0.110;2022-09-09T12:46:53;9.23;;;2.17;;
74614;SDS011;63121;51.458;-0.110;2022-09-09T12:49:33;5.28;;;1.77;;
74614;SDS011;63121;51.458;-0.110;2022-09-09T12:54:55;7.53;;;2.63;;
74614;SDS011;63121;51.458;-0.110;2022-09-09T12:57:22;5.97;;;2.10;;
74614;SDS011;63121;51.458;-0.110;2022-09-09T12:59:50;7.15;;;2.00;;
74614;SDS011;63121;51.458;-0.110;2022-09-09T13:02:18;5.30;;;1.80;;
74614;SDS011;63121;51.458;-0.110;2022-09-09T13:04:46;7.15;;;2.22;;
74614;SDS011;63121;51.458;-0.110;2022-09-09T13:07:12;4.80;;;1.80;;
74614;SDS011;63121;51.458;-0.110;2022-09-09T13:12:04;7.57;;;2.85;;
74614;SDS011;63121;51.458;-0.110;2022-09-09T13:14:35;6.70;;;2.05;;
74614;SDS011;63121;51.458;-0.110;2022-09-09T13:17:05;6.90;;;1.88;;
74614;SDS011;63121;51.458;-0.110;2022-09-09T13:19:34;6.75;;;1.70;;
74614;SDS011;63121;51.458;-0.110;2022-09-09T13:25:01;6.07;;;1.85;;
74614;SDS011;63121;51.458;-0.110;2022-09-09T13:27:53;6.00;;;1.70;;
74614;SDS011;63121;51.458;-0.110;2022-09-09T13:35:47;4.63;;;1.60;;
74614;SDS011;63121;51.458;-0.110;2022-09-09T13:38:15;6.25;;;1.88;;
74614;SDS011;63121;51.458;-0.110;2022-09-09T13:40:51;7.28;;;2.10;;
74614;SDS011;63121;51.458;-0.110;2022-09-09T13:43:21;8.18;;;2.10;;
74614;SDS011;63121;51.458;-0.110;2022-09-09T13:45:58;6.57;;;1.90;;
74614;SDS011;63121;51.458;-0.110;2022-09-09T13:48:26;6.63;;;1.77;;
74614;SDS011;63121;51.458;-0.110;2022-09-09T13:50:59;5.38;;;1.77;;
74614;SDS011;63121;51.458;-0.110;2022-09-09T13:53:26;7.63;;;2.00;;
74614;SDS011;63121;51.458;-0.110;2022-09-09T13:55:52;5.53;;;1.70;;
74614;SDS011;63121;51.458;-0.110;2022-09-09T13:58:18;5.47;;;1.73;;
74614;SDS011;63121;51.458;-0.110;2022-09-09T14:00:44;5.00;;;1.90;;
74614;SDS011;63121;51.458;-0.110;2022-09-09T14:03:11;5.93;;;1.98;;
74614;SDS011;63121;51.458;-0.110;2022-09-09T14:05:36;6.78;;;1.80;;
74614;SDS011;63121;51.458;-0.110;2022-09-09T14:08:06;6.57;;;1.67;;
74614;SDS011;63121;51.458;-0.110;2022-09-09T14:10:32;4.32;;;1.63;;
74614;SDS011;63121;51.458;-0.110;2022-09-09T14:13:01;5.65;;;1.83;;
74614;SDS011;63121;51.458;-0.110;2022-09-09T14:15:27;5.72;;;1.58;;
74614;SDS011;63121;51.458;-0.110;2022-09-09T14:17:54;7.10;;;1.83;;
74614;SDS011;63121;51.458;-0.110;2022-09-09T14:20:19;5.50;;;1.60;;
74614;SDS011;63121;51.458;-0.110;2022-09-09T14:22:45;6.28;;;1.83;;
74614;SDS011;63121;51.458;-0.110;2022-09-09T14:25:11;4.57;;;1.60;;
74614;SDS011;63121;51.458;-0.110;2022-09-09T14:27:38;5.10;;;1.73;;
74614;SDS011;63121;51.458;-0.110;2022-09-09T14:30:04;6.35;;;2.03;;
74614;SDS011;63121;51.458;-0.110;2022-09-09T14:32:31;6.25;;;2.25;;
74614;SDS011;63121;51.458;-0.110;2022-09-09T14:34:58;6.25;;;1.95;;
74614;SDS011;63121;51.458;-0.110;2022-09-09T14:37:24;6.40;;;1.83;;
74614;SDS011;63121;51.458;-0.110;2022-09-09T14:39:49;8.35;;;2.42;;
74614;SDS011;63121;51.458;-0.110;2022-09-09T14:42:15;7.13;;;1.92;;
74614;SDS011;63121;51.458;-0.110;2022-09-09T14:44:41;5.57;;;1.70;;
74614;SDS011;63121;51.458;-0.110;2022-09-09T14:47:07;5.87;;;2.07;;
74614;SDS011;63121;51.458;-0.110;2022-09-09T14:49:33;5.55;;;1.83;;
74614;SDS011;63121;51.458;-0.110;2022-09-09T14:51:59;7.10;;;2.13;;
74614;SDS011;63121;51.458;-0.110;2022-09-09T14:54:24;6.75;;;2.00;;
74614;SDS011;63121;51.458;-0.110;2022-09-09T14:56:50;5.75;;;2.30;;
74614;SDS011;63121;51.458;-0.110;2022-09-09T14:59:16;6.45;;;2.00;;
74614;SDS011;63121;51.458;-0.110;2022-09-09T15:01:41;5.45;;;1.73;;
74614;SDS011;63121;51.458;-0.110;2022-09-09T15:04:06;6.80;;;2.00;;
74614;SDS011;63121;51.458;-0.110;2022-09-09T15:06:33;6.65;;;1.77;;
74614;SDS011;63121;51.458;-0.110;2022-09-09T15:09:01;4.15;;;1.60;;
74614;SDS011;63121;51.458;-0.110;2022-09-09T15:11:28;6.57;;;1.80;;
74614;SDS011;63121;51.458;-0.110;2022-09-09T15:13:55;5.28;;;1.60;;
74614;SDS011;63121;51.458;-0.110;2022-09-09T15:16:21;4.82;;;1.73;;
74614;SDS011;63121;51.458;-0.110;2022-09-09T15:18:50;5.82;;;1.65;;
74614;SDS011;63121;51.458;-0.110;2022-09-09T15:21:18;5.15;;;1.50;;
74614;SDS011;63121;51.458;-0.110;2022-09-09T15:23:45;6.10;;;1.48;;
74614;SDS011;63121;51.458;-0.110;2022-09-09T15:26:12;4.13;;;1.30;;
74614;SDS011;63121;51.458;-0.110;2022-09-09T15:28:40;3.95;;;1.40;;
74614;SDS011;63121;51.458;-0.110;2022-09-09T15:31:12;4.63;;;1.40;;
74614;SDS011;63121;51.458;-0.110;2022-09-09T15:33:48;4.32;;;1.40;;
74614;SDS011;63121;51.458;-0.110;2022-09-09T15:36:19;5.30;;;1.45;;
74614;SDS011;63121;51.458;-0.110;2022-09-09T15:38:44;3.55;;;1.20;;
74614;SDS011;63121;51.458;-0.110;2022-09-09T15:41:10;5.90;;;1.63;;
74614;SDS011;63121;51.458;-0.110;2022-09-09T15:43:36;5.18;;;1.50;;
74614;SDS011;63121;51.458;-0.110;2022-09-09T15:46:05;4.50;;;1.50;;
74614;SDS011;63121;51.458;-0.110;2022-09-09T15:48:44;20.63;;;2.58;;
74614;SDS011;63121;51.458;-0.110;2022-09-09T15:51:10;8.75;;;2.47;;
74614;SDS011;63121;51.458;-0.110;2022-09-09T15:53:39;10.40;;;2.67;;
74614;SDS011;63121;51.458;-0.110;2022-09-09T15:56:08;16.90;;;2.70;;
74614;SDS011;63121;51.458;-0.110;2022-09-09T15:58:34;9.65;;;2.35;;
74614;SDS011;63121;51.458;-0.110;2022-09-09T16:01:03;9.82;;;2.40;;
74614;SDS011;63121;51.458;-0.110;2022-09-09T16:03:29;7.60;;;2.17;;
74614;SDS011;63121;51.458;-0.110;2022-09-09T16:05:58;6.40;;;1.85;;
74614;SDS011;63121;51.458;-0.110;2022-09-09T16:08:35;7.93;;;2.20;;
74614;SDS011;63121;51.458;-0.110;2022-09-09T16:11:13;8.18;;;2.50;;
74614;SDS011;63121;51.458;-0.110;2022-09-09T16:13:40;8.30;;;2.65;;
74614;SDS011;63121;51.458;-0.110;2022-09-09T16:16:10;9.57;;;2.67;;
74614;SDS011;63121;51.458;-0.110;2022-09-09T16:18:41;9.07;;;3.15;;
74614;SDS011;63121;51.458;-0.110;2022-09-09T16:21:12;8.27;;;2.90;;
74614;SDS011;63121;51.458;-0.110;2022-09-09T16:23:46;10.25;;;3.42;;
74614;SDS011;63121;51.458;-0.110;2022-09-09T16:26:14;10.85;;;3.90;;
74614;SDS011;63121;51.458;-0.110;2022-09-09T16:28:41;8.38;;;3.20;;
74614;SDS011;63121;51.458;-0.110;2022-09-09T16:31:07;9.10;;;3.03;;
74614;SDS011;63121;51.458;-0.110;2022-09-09T16:33:35;10.02;;;3.30;;
74614;SDS011;63121;51.458;-0.110;2022-09-09T16:36:04;9.13;;;3.13;;
74614;SDS011;63121;51.458;-0.110;2022-09-09T16:38:35;8.93;;;3.35;;
74614;SDS011;63121;51.458;-0.110;2022-09-09T16:41:00;8.63;;;3.28;;
74614;SDS011;63121;51.458;-0.110;2022-09-09T16:43:27;10.05;;;3.38;;
74614;SDS011;63121;51.458;-0.110;2022-09-09T16:45:52;9.68;;;3.28;;
74614;SDS011;63121;51.458;-0.110;2022-09-09T16:48:17;8.20;;;3.10;;
74614;SDS011;63121;51.458;-0.110;2022-09-09T16:50:43;9.23;;;3.00;;
74614;SDS011;63121;51.458;-0.110;2022-09-09T16:53:09;9.52;;;3.03;;
74614;SDS011;63121;51.458;-0.110;2022-09-09T16:55:41;8.70;;;2.83;;
74614;SDS011;63121;51.458;-0.110;2022-09-09T16:58:07;8.30;;;3.15;;
74614;SDS011;63121;51.458;-0.110;2022-09-09T17:00:35;8.20;;;2.55;;
74614;SDS011;63121;51.458;-0.110;2022-09-09T17:03:00;8.48;;;2.80;;
74614;SDS011;63121;51.458;-0.110;2022-09-09T17:05:25;8.52;;;2.80;;